createdAt,value
2023-03-22T00:02:09.500Z,98448.31
2023-03-22T00:07:31.536Z,98437.50
2023-03-22T00:12:53.292Z,98438.88
2023-03-22T00:18:16.197Z,98438.72
2023-03-22T00:23:37.899Z,98435.38
2023-03-22T00:28:59.865Z,98432.72
2023-03-22T00:34:21.613Z,98428.56
2023-03-22T00:39:44.348Z,98426.97
2023-03-22T00:45:09.628Z,98425.16
2023-03-22T00:50:31.335Z,98423.69
2023-03-22T00:55:53.081Z,98415.19
2023-03-22T01:01:15.203Z,98411.00
2023-03-22T01:06:37.019Z,98405.94
2023-03-22T01:11:58.862Z,98398.75
2023-03-22T01:17:20.720Z,98398.09
2023-03-22T01:22:42.438Z,98385.16
2023-03-22T01:28:06.649Z,98384.75
2023-03-22T01:33:28.340Z,98379.88
2023-03-22T01:38:50.507Z,98371.59
2023-03-22T01:44:18.323Z,98371.34
2023-03-22T01:49:40.838Z,98369.56
2023-03-22T01:55:04.412Z,98367.28
2023-03-22T02:00:26.744Z,98370.13
2023-03-22T02:05:48.468Z,98362.47
2023-03-22T02:11:17.105Z,98365.09
2023-03-22T02:16:55.823Z,98350.25
2023-03-22T02:22:49.943Z,98353.91
2023-03-22T02:28:16.398Z,98346.44
2023-03-22T02:33:47.181Z,98345.69
2023-03-22T02:39:19.348Z,98338.50
2023-03-22T02:45:03.124Z,98338.81
2023-03-22T02:50:29.574Z,98335.22
2023-03-22T02:56:02.434Z,98337.06
2023-03-22T03:01:29.164Z,98334.66
2023-03-22T03:06:53.522Z,98334.84
2023-03-22T03:12:20.201Z,98332.63
2023-03-22T03:17:48.350Z,98334.13
2023-03-22T03:23:33.141Z,98334.84
2023-03-22T03:29:08.419Z,98334.13
2023-03-22T03:34:36.091Z,98349.03
2023-03-22T03:40:05.347Z,98345.00
2023-03-22T03:45:27.563Z,98339.78
2023-03-22T03:50:52.983Z,98335.97
2023-03-22T03:56:14.742Z,98350.63
2023-03-22T04:01:36.524Z,98356.13
2023-03-22T04:07:00.376Z,98349.31
2023-03-22T04:12:22.136Z,98344.72
2023-03-22T04:17:44.212Z,98348.00
2023-03-22T04:23:05.964Z,98339.50
2023-03-22T04:28:28.727Z,98343.41
2023-03-22T04:33:54.919Z,98333.50
2023-03-22T04:39:18.211Z,98330.31
2023-03-22T04:44:39.927Z,98336.19
2023-03-22T04:50:01.834Z,98324.16
2023-03-22T04:55:23.588Z,98324.75
2023-03-22T05:00:45.326Z,98319.63
2023-03-22T05:06:08.990Z,98307.25
2023-03-22T05:11:30.727Z,98299.75
2023-03-22T05:16:52.583Z,98306.28
2023-03-22T05:22:14.426Z,98310.75
2023-03-22T05:27:38.959Z,98303.13
2023-03-22T05:33:03.748Z,98307.31
2023-03-22T05:38:25.607Z,98303.69
2023-03-22T05:43:47.404Z,98308.06
2023-03-22T05:49:10.560Z,98302.09
2023-03-22T05:54:33.777Z,98311.44
2023-03-22T05:59:56.881Z,98304.72
2023-03-22T06:05:18.801Z,98313.31
2023-03-22T06:10:40.853Z,98319.16
2023-03-22T06:16:03.983Z,98320.03
2023-03-22T06:21:25.807Z,98323.81
2023-03-22T06:26:47.656Z,98331.31
2023-03-22T06:32:09.606Z,98337.28
2023-03-22T06:37:31.321Z,98341.75
2023-03-22T06:42:54.314Z,98341.75
2023-03-22T06:48:16.058Z,98344.84
2023-03-22T06:53:37.878Z,98340.81
2023-03-22T06:58:59.638Z,98348.22
2023-03-22T07:04:21.562Z,98343.34
2023-03-22T07:09:43.378Z,98336.19
2023-03-22T07:15:05.716Z,98336.06
2023-03-22T07:20:27.768Z,98337.28
2023-03-22T07:25:50.045Z,98335.69
2023-03-22T07:31:12.895Z,98328.78
2023-03-22T07:36:34.800Z,98327.72
2023-03-22T07:41:56.639Z,98331.00
2023-03-22T07:47:27.213Z,98330.09
2023-03-22T07:52:56.088Z,98333.00
2023-03-22T07:58:19.243Z,98337.25
2023-03-22T08:03:41.038Z,98333.44
2023-03-22T08:09:08.422Z,98335.94
2023-03-22T08:14:36.366Z,98337.00
2023-03-22T08:19:58.876Z,98339.03
2023-03-22T08:25:21.072Z,98335.66
2023-03-22T08:30:44.457Z,98331.69
2023-03-22T08:36:09.718Z,98321.03
2023-03-22T08:41:31.605Z,98314.31
2023-03-22T08:46:53.710Z,98319.34
2023-03-22T08:52:15.488Z,98307.81
2023-03-22T08:57:38.852Z,98300.06
2023-03-22T09:03:00.813Z,98311.53
2023-03-22T09:08:22.522Z,98303.50
2023-03-22T09:13:44.976Z,98304.97
2023-03-22T09:19:07.249Z,98298.84
2023-03-22T09:24:29.035Z,98291.25
2023-03-22T09:29:52.572Z,98289.63
2023-03-22T09:35:14.329Z,98270.13
2023-03-22T09:40:39.512Z,98274.81
2023-03-22T09:46:02.259Z,98269.94
2023-03-22T09:51:41.744Z,98263.88
2023-03-22T09:57:19.043Z,98262.84
2023-03-22T10:02:40.800Z,98259.06
2023-03-22T10:08:17.146Z,98239.97
2023-03-22T10:13:51.615Z,98225.03
2023-03-22T10:19:20.754Z,98222.03
2023-03-22T10:24:46.105Z,98218.09
2023-03-22T10:30:22.820Z,98216.28
2023-03-22T10:35:45.724Z,98210.31
2023-03-22T10:41:09.671Z,98204.88
2023-03-22T10:46:39.378Z,98212.63
2023-03-22T10:52:27.081Z,98199.41
2023-03-22T10:58:12.152Z,98190.56
2023-03-22T11:03:44.216Z,98182.44
2023-03-22T11:09:14.089Z,98181.63
2023-03-22T11:14:42.221Z,98152.69
2023-03-22T11:20:09.875Z,98160.13
2023-03-22T11:25:36.252Z,98154.78
2023-03-22T11:31:05.216Z,98147.00
2023-03-22T11:36:28.010Z,98146.06
2023-03-22T11:41:50.038Z,98133.16
2023-03-22T11:47:14.009Z,98125.13
2023-03-22T11:52:36.121Z,98129.84
2023-03-22T11:57:58.276Z,98114.56
2023-03-22T12:03:24.083Z,98105.66
2023-03-22T12:08:58.362Z,98099.69
2023-03-22T12:14:29.641Z,98089.81
2023-03-22T12:19:57.387Z,98081.75
2023-03-22T12:25:28.987Z,98077.56
2023-03-22T12:30:53.927Z,98088.53
2023-03-22T12:36:21.775Z,98089.09
2023-03-22T12:41:48.293Z,98087.13
2023-03-22T12:47:41.723Z,98071.97
2023-03-22T12:53:05.274Z,98072.38
2023-03-22T12:58:27.440Z,98076.00
2023-03-22T13:03:53.599Z,98073.19
2023-03-22T13:09:34.436Z,98067.22
2023-03-22T13:15:16.071Z,98050.47
2023-03-22T13:20:41.022Z,98042.13
2023-03-22T13:26:05.049Z,98035.34
2023-03-22T13:31:37.537Z,98020.31
2023-03-22T13:37:01.491Z,98027.91
2023-03-22T13:42:35.655Z,98021.69
2023-03-22T13:48:29.443Z,98019.09
2023-03-22T13:53:56.844Z,98019.78
2023-03-22T13:59:27.905Z,98008.03
2023-03-22T14:04:56.431Z,97998.69
2023-03-22T14:10:26.333Z,98000.28
2023-03-22T14:15:55.729Z,97993.41
2023-03-22T14:21:35.452Z,97987.41
